F/V Anna Mamm Mari — FOHD — position and weather

sailwx.info

Track history (hours):
 
Tides and Currents Weather Stations Pressure Air Temp Water Temp Dewpoint Dewpoint Depression Visibility Wind Speed Wind Dir Waves Ship Positions

F/V Anna Mamm Mari

Last reported at 2015-Jan-30 23:33 UTC. Time now 2015-Jan-31 22:44 UTC.
Position N 46°22' W 001°49'.

Length 17 m.

Type: Fishing. MMSI: 228393000.

Date/timePositionNaut miles runAvg speedWind from/ knotsBaromVisibWave heightAir tempDewpointWater temp
2015-Jan-30 23:33N 46°22' W 001°49'7 7.4
2015-Jan-30 22:33N 46°30' W 001°48'0 0.0
2015-Jan-30 21:33N 46°30' W 001°48'0 0.0
2015-Jan-30 20:33N 46°30' W 001°48'0 0.0
2015-Jan-30 19:33N 46°30' W 001°48'0 0.0
2015-Jan-30 18:33N 46°30' W 001°48'0 0.0
2015-Jan-30 17:33N 46°30' W 001°48'0 0.0
2015-Jan-30 16:33N 46°30' W 001°48'0 0.0
2015-Jan-30 15:33N 46°30' W 001°48'0 0.0
2015-Jan-30 14:33N 46°30' W 001°48'0 0.0
2015-Jan-30 13:33N 46°30' W 001°48'0 0.0
2015-Jan-30 12:33N 46°30' W 001°48'0 0.0
2015-Jan-30 11:33N 46°30' W 001°48'0 0.0
2015-Jan-30 10:33N 46°30' W 001°48'0 0.0
2015-Jan-30 09:33N 46°30' W 001°48'0 0.0
2015-Jan-30 08:33N 46°30' W 001°48'0 0.0
2015-Jan-30 07:33N 46°30' W 001°48'0 0.0
2015-Jan-30 06:33N 46°30' W 001°48'0 0.0
2015-Jan-30 05:33N 46°30' W 001°48'0 0.0
2015-Jan-30 04:33N 46°30' W 001°48'0 0.0
2015-Jan-30 03:33N 46°30' W 001°48'0 0.0
2015-Jan-30 02:33N 46°30' W 001°48'0 0.0
2015-Jan-30 01:33N 46°30' W 001°48'0 0.0
2015-Jan-30 00:33N 46°30' W 001°47'0 0.2
2015-Jan-29 23:33N 46°30' W 001°47'0 0.0
2015-Jan-29 22:33N 46°30' W 001°47'0 0.0
2015-Jan-29 21:33N 46°30' W 001°47'0 0.0
2015-Jan-29 20:33N 46°30' W 001°47'0 0.0
2015-Jan-29 19:33N 46°30' W 001°47'0 0.0
2015-Jan-29 18:33N 46°30' W 001°47'0 0.0
2015-Jan-29 17:33N 46°30' W 001°47'0 0.0
2015-Jan-29 16:33N 46°30' W 001°47'0 0.0
2015-Jan-29 15:33N 46°30' W 001°47'0 0.0
2015-Jan-29 14:33N 46°30' W 001°47'0 0.0
2015-Jan-29 13:33N 46°30' W 001°47'7 6.7
2015-Jan-29 12:33N 46°23' W 001°50'8 7.6
2015-Jan-29 11:27N 46°16' W 001°55'  
2015-Jan-26 21:23N 46°15' W 001°50'6 7.8
2015-Jan-26 20:33N 46°21' W 001°49'8 7.8
2015-Jan-26 19:33N 46°29' W 001°47'1 0.7
2015-Jan-26 18:33N 46°30' W 001°47'0 0.1
2015-Jan-26 17:33N 46°30' W 001°47'0 0.2
2015-Jan-26 16:33N 46°30' W 001°47'0 0.0
2015-Jan-26 15:33N 46°30' W 001°47'0 0.0
2015-Jan-26 14:33N 46°30' W 001°47'0 0.0
2015-Jan-26 13:33N 46°30' W 001°47'0 0.0
2015-Jan-26 12:33N 46°30' W 001°47'0 0.0
2015-Jan-26 11:33N 46°30' W 001°47'0 0.0
2015-Jan-26 10:33N 46°30' W 001°47'0 0.0
2015-Jan-26 09:33N 46°30' W 001°47'0 0.0
2015-Jan-26 08:33N 46°30' W 001°47'0 0.0
2015-Jan-26 07:33N 46°30' W 001°48'0 0.0
2015-Jan-26 06:33N 46°30' W 001°48'0 0.0
2015-Jan-26 05:33N 46°30' W 001°48'0 0.0
2015-Jan-26 04:33N 46°30' W 001°48'4 3.8
2015-Jan-26 03:33N 46°26' W 001°47'9 8.7
2015-Jan-26 02:33N 46°17' W 001°49'3 0.9
2015-Jan-25 23:20N 46°15' W 001°51'6 7.4
2015-Jan-25 22:33N 46°20' W 001°49'7 7.5
2015-Jan-25 21:33N 46°28' W 001°47'2 2.2
2015-Jan-25 20:33N 46°30' W 001°48'0 0.0
2015-Jan-25 19:33N 46°30' W 001°48'0 0.1
2015-Jan-25 18:33N 46°30' W 001°47'0 0.2
2015-Jan-25 17:33N 46°30' W 001°48'9 8.9
2015-Jan-25 16:33N 46°21' W 001°51'  
2015-Jan-22 02:14N 46°20' W 001°50'6 8.3
2015-Jan-22 01:34N 46°25' W 001°48'4 4.4
2015-Jan-22 00:34N 46°30' W 001°47'0 0.0
2015-Jan-21 23:34N 46°30' W 001°47'0 0.0
2015-Jan-21 22:50N 46°30' W 001°47'0 0.0
2015-Jan-21 22:46N 46°30' W 001°47'0 0.0
2015-Jan-21 22:34N 46°30' W 001°47'0 0.0
2015-Jan-21 21:33N 46°30' W 001°47'0 0.0
2015-Jan-21 20:34N 46°30' W 001°47'0 0.2
2015-Jan-21 19:34N 46°30' W 001°47'7 6.6
2015-Jan-21 18:33N 46°23' W 001°49'  
Track history (hours):
 
Tides and Currents Weather Stations Pressure Air Temp Water Temp Dewpoint Dewpoint Depression Visibility Wind Speed Wind Dir Waves Ship Positions

F/V Anna Mamm Mari

Last reported at 2015-Jan-30 23:33 UTC. Time now 2015-Jan-31 22:44 UTC.
Position N 46°22' W 001°49'.

Length 17 m.

Type: Fishing. MMSI: 228393000.

Date/timePositionNaut miles runAvg speedWind from/ knotsBaromVisibWave heightAir tempDewpointWater temp
2015-Jan-30 23:33N 46°22' W 001°49'7 7.4
2015-Jan-30 22:33N 46°30' W 001°48'0 0.0
2015-Jan-30 21:33N 46°30' W 001°48'0 0.0
2015-Jan-30 20:33N 46°30' W 001°48'0 0.0
2015-Jan-30 19:33N 46°30' W 001°48'0 0.0
2015-Jan-30 18:33N 46°30' W 001°48'0 0.0
2015-Jan-30 17:33N 46°30' W 001°48'0 0.0
2015-Jan-30 16:33N 46°30' W 001°48'0 0.0
2015-Jan-30 15:33N 46°30' W 001°48'0 0.0
2015-Jan-30 14:33N 46°30' W 001°48'0 0.0
2015-Jan-30 13:33N 46°30' W 001°48'0 0.0
2015-Jan-30 12:33N 46°30' W 001°48'0 0.0
2015-Jan-30 11:33N 46°30' W 001°48'0 0.0
2015-Jan-30 10:33N 46°30' W 001°48'0 0.0
2015-Jan-30 09:33N 46°30' W 001°48'0 0.0
2015-Jan-30 08:33N 46°30' W 001°48'0 0.0
2015-Jan-30 07:33N 46°30' W 001°48'0 0.0
2015-Jan-30 06:33N 46°30' W 001°48'0 0.0
2015-Jan-30 05:33N 46°30' W 001°48'0 0.0
2015-Jan-30 04:33N 46°30' W 001°48'0 0.0
2015-Jan-30 03:33N 46°30' W 001°48'0 0.0
2015-Jan-30 02:33N 46°30' W 001°48'0 0.0
2015-Jan-30 01:33N 46°30' W 001°48'0 0.0
2015-Jan-30 00:33N 46°30' W 001°47'0 0.2
2015-Jan-29 23:33N 46°30' W 001°47'0 0.0
2015-Jan-29 22:33N 46°30' W 001°47'0 0.0
2015-Jan-29 21:33N 46°30' W 001°47'0 0.0
2015-Jan-29 20:33N 46°30' W 001°47'0 0.0
2015-Jan-29 19:33N 46°30' W 001°47'0 0.0
2015-Jan-29 18:33N 46°30' W 001°47'0 0.0
2015-Jan-29 17:33N 46°30' W 001°47'0 0.0
2015-Jan-29 16:33N 46°30' W 001°47'0 0.0
2015-Jan-29 15:33N 46°30' W 001°47'0 0.0
2015-Jan-29 14:33N 46°30' W 001°47'0 0.0
2015-Jan-29 13:33N 46°30' W 001°47'7 6.7
2015-Jan-29 12:33N 46°23' W 001°50'8 7.6
2015-Jan-29 11:27N 46°16' W 001°55'  
2015-Jan-26 21:23N 46°15' W 001°50'6 7.8
2015-Jan-26 20:33N 46°21' W 001°49'8 7.8
2015-Jan-26 19:33N 46°29' W 001°47'1 0.7
2015-Jan-26 18:33N 46°30' W 001°47'0 0.1
2015-Jan-26 17:33N 46°30' W 001°47'0 0.2
2015-Jan-26 16:33N 46°30' W 001°47'0 0.0
2015-Jan-26 15:33N 46°30' W 001°47'0 0.0
2015-Jan-26 14:33N 46°30' W 001°47'0 0.0
2015-Jan-26 13:33N 46°30' W 001°47'0 0.0
2015-Jan-26 12:33N 46°30' W 001°47'0 0.0
2015-Jan-26 11:33N 46°30' W 001°47'0 0.0
2015-Jan-26 10:33N 46°30' W 001°47'0 0.0
2015-Jan-26 09:33N 46°30' W 001°47'0 0.0
2015-Jan-26 08:33N 46°30' W 001°47'0 0.0
2015-Jan-26 07:33N 46°30' W 001°48'0 0.0
2015-Jan-26 06:33N 46°30' W 001°48'0 0.0
2015-Jan-26 05:33N 46°30' W 001°48'0 0.0
2015-Jan-26 04:33N 46°30' W 001°48'4 3.8
2015-Jan-26 03:33N 46°26' W 001°47'9 8.7
2015-Jan-26 02:33N 46°17' W 001°49'3 0.9
2015-Jan-25 23:20N 46°15' W 001°51'6 7.4
2015-Jan-25 22:33N 46°20' W 001°49'7 7.5
2015-Jan-25 21:33N 46°28' W 001°47'2 2.2
2015-Jan-25 20:33N 46°30' W 001°48'0 0.0
2015-Jan-25 19:33N 46°30' W 001°48'0 0.1
2015-Jan-25 18:33N 46°30' W 001°47'0 0.2
2015-Jan-25 17:33N 46°30' W 001°48'9 8.9
2015-Jan-25 16:33N 46°21' W 001°51'  
2015-Jan-22 02:14N 46°20' W 001°50'6 8.3
2015-Jan-22 01:34N 46°25' W 001°48'4 4.4
2015-Jan-22 00:34N 46°30' W 001°47'0 0.0
2015-Jan-21 23:34N 46°30' W 001°47'0 0.0
2015-Jan-21 22:50N 46°30' W 001°47'0 0.0
2015-Jan-21 22:46N 46°30' W 001°47'0 0.0
2015-Jan-21 22:34N 46°30' W 001°47'0 0.0
2015-Jan-21 21:33N 46°30' W 001°47'0 0.0
2015-Jan-21 20:34N 46°30' W 001°47'0 0.2
2015-Jan-21 19:34N 46°30' W 001°47'7 6.6
2015-Jan-21 18:33N 46°23' W 001°49'  

Dump ship's entire track history